createdAt,value
2023-02-17T00:01:21.413Z,2.75
2023-02-17T00:04:24.028Z,2.53
2023-02-17T00:07:31.549Z,2.57
2023-02-17T00:10:35.602Z,3.10
2023-02-17T00:13:38.419Z,2.60
2023-02-17T00:16:41.405Z,2.80
2023-02-17T00:19:44.472Z,2.38
2023-02-17T00:22:47.080Z,2.30
2023-02-17T00:25:51.617Z,3.47
2023-02-17T00:28:54.403Z,2.53
2023-02-17T00:31:57.237Z,2.63
2023-02-17T00:35:00.267Z,2.45
2023-02-17T00:38:02.859Z,2.75
2023-02-17T00:41:07.118Z,2.73
2023-02-17T00:44:17.192Z,2.40
2023-02-17T00:47:19.903Z,2.80
2023-02-17T00:50:22.550Z,2.35
2023-02-17T00:53:25.245Z,3.63
2023-02-17T00:56:29.275Z,2.30
2023-02-17T00:59:32.078Z,2.40
2023-02-17T01:02:34.729Z,2.25
2023-02-17T01:05:42.046Z,2.70
2023-02-17T01:08:44.876Z,2.27
2023-02-17T01:11:48.860Z,2.25
2023-02-17T01:14:51.437Z,2.30
2023-02-17T01:17:54.042Z,2.57
2023-02-17T01:20:57.170Z,2.37
2023-02-17T01:24:01.084Z,2.80
2023-02-17T01:27:05.089Z,2.20
2023-02-17T01:30:08.749Z,2.40
2023-02-17T01:36:16.417Z,2.50
2023-02-17T01:39:19.756Z,2.20
2023-02-17T01:42:23.687Z,2.65
2023-02-17T01:45:35.366Z,2.80
2023-02-17T01:48:39.842Z,2.07
2023-02-17T01:51:42.458Z,2.30
2023-02-17T01:54:47.275Z,2.13
2023-02-17T01:57:53.379Z,2.47
2023-02-17T02:00:57.556Z,2.20
2023-02-17T02:04:02.276Z,2.50
2023-02-17T02:07:07.831Z,2.57
2023-02-17T02:10:11.342Z,2.00
2023-02-17T02:13:15.392Z,2.40
2023-02-17T02:16:21.722Z,2.37
2023-02-17T02:20:00.510Z,1.90
2023-02-17T02:23:32.261Z,2.17
2023-02-17T02:27:07.666Z,2.57
2023-02-17T02:30:46.645Z,2.20
2023-02-17T02:33:52.750Z,2.73
2023-02-17T02:36:58.178Z,2.37
2023-02-17T02:40:02.614Z,2.00
2023-02-17T02:43:05.699Z,2.20
2023-02-17T02:46:08.664Z,2.30
2023-02-17T02:49:13.445Z,2.65
2023-02-17T02:52:20.418Z,2.23
2023-02-17T02:55:30.388Z,2.23
2023-02-17T02:58:39.821Z,2.47
2023-02-17T03:01:46.431Z,2.77
2023-02-17T03:04:54.343Z,2.00
2023-02-17T03:08:00.773Z,2.10
2023-02-17T03:11:03.938Z,2.33
2023-02-17T03:14:09.112Z,2.10
2023-02-17T03:17:12.211Z,1.70
2023-02-17T03:20:16.336Z,2.00
2023-02-17T03:23:19.116Z,2.53
2023-02-17T03:26:22.042Z,2.42
2023-02-17T03:29:24.680Z,2.47
2023-02-17T03:32:27.650Z,2.67
2023-02-17T03:35:31.663Z,2.42
2023-02-17T03:38:34.226Z,2.60
2023-02-17T03:41:36.882Z,2.90
2023-02-17T03:44:39.536Z,3.07
2023-02-17T03:47:42.114Z,2.40
2023-02-17T03:50:46.462Z,2.43
2023-02-17T03:53:49.883Z,2.77
2023-02-17T03:56:57.737Z,2.53
2023-02-17T04:00:00.343Z,2.20
2023-02-17T04:03:02.898Z,2.17
2023-02-17T04:06:07.956Z,2.30
2023-02-17T04:09:10.975Z,2.40
2023-02-17T04:12:13.738Z,4.05
2023-02-17T04:15:16.425Z,2.65
2023-02-17T04:18:19.410Z,2.50
2023-02-17T04:21:23.338Z,2.85
2023-02-17T04:24:25.903Z,3.43
2023-02-17T04:27:28.681Z,2.97
2023-02-17T04:30:31.386Z,2.80
2023-02-17T04:33:34.533Z,2.87
2023-02-17T04:36:38.933Z,3.10
2023-02-17T04:39:42.723Z,3.03
2023-02-17T04:42:45.349Z,3.10
2023-02-17T04:45:48.145Z,2.70
2023-02-17T04:48:50.784Z,2.45
2023-02-17T04:51:54.718Z,3.00
2023-02-17T04:54:57.658Z,2.87
2023-02-17T04:58:00.635Z,2.58
2023-02-17T05:04:30.369Z,2.53
2023-02-17T05:07:34.541Z,2.33
2023-02-17T05:10:37.273Z,2.17
2023-02-17T05:13:40.172Z,2.97
2023-02-17T05:16:42.902Z,2.97
2023-02-17T05:19:45.945Z,2.57
2023-02-17T05:22:49.956Z,2.55
2023-02-17T05:25:53.417Z,2.60
2023-02-17T05:28:56.072Z,2.80
2023-02-17T05:31:58.920Z,2.97
2023-02-17T05:35:01.793Z,2.22
2023-02-17T05:38:05.886Z,2.80
2023-02-17T05:41:08.881Z,2.17
2023-02-17T05:44:11.509Z,2.38
2023-02-17T05:47:14.095Z,2.17
2023-02-17T05:50:16.848Z,2.33
2023-02-17T05:53:20.965Z,2.50
2023-02-17T05:56:23.571Z,3.47
2023-02-17T05:59:26.343Z,2.17
2023-02-17T06:02:29.262Z,2.63
2023-02-17T06:05:31.936Z,2.90
2023-02-17T06:08:36.050Z,2.30
2023-02-17T06:11:38.809Z,2.33
2023-02-17T06:14:41.712Z,2.25
2023-02-17T06:17:44.384Z,2.10
2023-02-17T06:20:47.206Z,2.43
2023-02-17T06:23:51.175Z,2.42
2023-02-17T06:26:53.964Z,2.57
2023-02-17T06:29:56.747Z,2.65
2023-02-17T06:32:59.525Z,2.30
2023-02-17T06:36:02.226Z,2.28
2023-02-17T06:39:06.331Z,2.50
2023-02-17T06:42:09.122Z,2.90
2023-02-17T06:45:11.711Z,2.10
2023-02-17T06:48:14.337Z,2.47
2023-02-17T06:51:16.987Z,2.70
2023-02-17T06:54:21.097Z,2.50
2023-02-17T06:57:23.688Z,2.67
2023-02-17T07:00:27.115Z,2.43
2023-02-17T07:03:29.756Z,2.65
2023-02-17T07:06:32.716Z,2.10
2023-02-17T07:09:36.690Z,2.58
2023-02-17T07:12:39.522Z,2.60
2023-02-17T07:15:42.401Z,2.92
2023-02-17T07:18:45.653Z,2.17
2023-02-17T07:21:48.367Z,2.35
2023-02-17T07:24:52.354Z,2.20
2023-02-17T07:27:55.191Z,2.30
2023-02-17T07:30:57.984Z,1.98
2023-02-17T07:34:01.372Z,2.60
2023-02-17T07:37:03.987Z,2.67
2023-02-17T07:40:09.246Z,2.53
2023-02-17T07:43:11.818Z,1.87
2023-02-17T07:46:14.910Z,1.87
2023-02-17T07:49:17.784Z,1.92
2023-02-17T07:52:20.430Z,2.50
2023-02-17T07:55:24.909Z,2.93
2023-02-17T07:58:27.554Z,1.90
2023-02-17T08:01:34.419Z,1.83
2023-02-17T08:04:37.098Z,1.80
2023-02-17T08:07:39.627Z,2.03
2023-02-17T08:11:00.972Z,2.00
2023-02-17T08:14:03.931Z,2.23
2023-02-17T08:17:06.773Z,2.15
2023-02-17T08:20:10.437Z,2.53
2023-02-17T08:23:12.984Z,2.47
2023-02-17T08:26:17.734Z,2.17
2023-02-17T08:29:21.193Z,1.80
2023-02-17T08:32:24.297Z,2.00
2023-02-17T08:35:27.078Z,2.47
2023-02-17T08:38:29.676Z,1.20
2023-02-17T08:41:35.653Z,1.90
2023-02-17T08:44:38.391Z,1.70
2023-02-17T08:47:41.279Z,1.33
2023-02-17T08:50:43.838Z,1.52
2023-02-17T08:53:46.772Z,2.33
2023-02-17T08:56:50.896Z,1.40
2023-02-17T08:59:53.516Z,1.90
2023-02-17T09:02:56.206Z,1.80
2023-02-17T09:05:59.365Z,1.75
2023-02-17T09:09:02.947Z,1.48
2023-02-17T09:15:10.205Z,0.93
2023-02-17T09:18:12.830Z,1.55
2023-02-17T09:21:15.486Z,1.63
2023-02-17T09:24:18.584Z,1.40
2023-02-17T09:27:22.447Z,1.42
2023-02-17T09:30:25.726Z,1.50
2023-02-17T09:33:28.283Z,1.40
2023-02-17T09:36:32.056Z,1.63
2023-02-17T09:39:34.666Z,1.50
2023-02-17T09:42:41.549Z,1.83
2023-02-17T09:45:45.860Z,1.27
2023-02-17T09:48:49.382Z,1.30
2023-02-17T09:51:56.548Z,1.70
2023-02-17T09:55:04.127Z,1.50
2023-02-17T09:58:14.498Z,1.50
2023-02-17T10:01:19.765Z,1.40
2023-02-17T10:04:23.981Z,1.53
2023-02-17T10:07:30.126Z,1.50
2023-02-17T10:10:36.673Z,1.50
2023-02-17T10:13:41.910Z,1.50
2023-02-17T10:16:48.658Z,1.30
2023-02-17T10:19:56.171Z,1.80
2023-02-17T10:23:04.305Z,1.33
2023-02-17T10:26:20.126Z,1.40
2023-02-17T10:29:33.160Z,1.70
2023-02-17T10:32:41.176Z,1.30
2023-02-17T10:35:51.180Z,1.30
2023-02-17T10:38:54.735Z,1.23
2023-02-17T10:45:04.357Z,1.57
2023-02-17T10:48:09.462Z,1.57
2023-02-17T10:51:16.026Z,1.50
2023-02-17T10:54:26.585Z,1.40
2023-02-17T10:57:33.301Z,1.20
2023-02-17T11:00:37.455Z,0.90
2023-02-17T11:03:41.361Z,1.60
2023-02-17T11:06:46.008Z,1.37
2023-02-17T11:09:50.798Z,0.80
2023-02-17T11:12:55.827Z,1.00
2023-02-17T11:16:00.233Z,1.00
2023-02-17T11:19:04.131Z,0.80
2023-02-17T11:22:20.196Z,1.10
2023-02-17T11:25:27.250Z,1.00
2023-02-17T11:28:30.266Z,0.77
2023-02-17T11:31:34.473Z,1.13
2023-02-17T11:34:39.006Z,0.83
2023-02-17T11:37:43.722Z,0.80
2023-02-17T11:40:54.202Z,0.80
2023-02-17T11:43:58.660Z,0.90
2023-02-17T11:47:07.655Z,0.90
2023-02-17T11:50:35.308Z,0.90
2023-02-17T11:53:50.283Z,0.63
2023-02-17T11:57:00.812Z,1.20
2023-02-17T12:00:12.534Z,0.77
2023-02-17T12:03:39.655Z,0.60
2023-02-17T12:06:46.378Z,0.43
2023-02-17T12:09:53.951Z,0.73
2023-02-17T12:13:04.859Z,0.80
2023-02-17T12:16:22.216Z,0.80
2023-02-17T12:19:37.109Z,0.80
2023-02-17T12:22:45.610Z,0.67
2023-02-17T12:25:52.277Z,0.70
2023-02-17T12:29:10.829Z,1.00
2023-02-17T12:32:26.079Z,0.70
2023-02-17T12:35:39.290Z,0.60
2023-02-17T12:38:46.375Z,0.52
2023-02-17T12:41:51.945Z,0.90
2023-02-17T12:44:59.931Z,0.70
2023-02-17T12:48:05.665Z,0.93
2023-02-17T12:51:13.363Z,0.60
2023-02-17T12:54:19.380Z,0.70
2023-02-17T12:57:23.745Z,0.40
2023-02-17T13:00:31.222Z,0.60
2023-02-17T13:03:34.758Z,0.50
2023-02-17T13:06:41.079Z,0.50
2023-02-17T13:09:45.536Z,0.60
2023-02-17T13:12:58.913Z,0.50
2023-02-17T13:16:04.381Z,0.55
2023-02-17T13:19:11.808Z,0.50
2023-02-17T13:22:23.735Z,0.63
2023-02-17T13:25:31.941Z,0.63
2023-02-17T13:28:37.944Z,0.90
2023-02-17T13:31:49.318Z,0.60
2023-02-17T13:35:01.069Z,0.70
2023-02-17T13:38:05.576Z,1.00
2023-02-17T13:41:08.252Z,0.80
2023-02-17T13:44:27.654Z,0.60
2023-02-17T13:47:37.609Z,0.90
2023-02-17T13:50:45.496Z,0.63
2023-02-17T13:53:51.234Z,0.63
2023-02-17T13:56:56.693Z,0.93
2023-02-17T14:00:10.205Z,0.80
2023-02-17T14:03:17.038Z,0.50
2023-02-17T14:06:25.008Z,0.60
2023-02-17T14:09:33.889Z,0.60
2023-02-17T14:12:36.767Z,0.87
2023-02-17T14:15:39.982Z,0.90
2023-02-17T14:18:45.457Z,0.77
2023-02-17T14:21:59.297Z,0.80
2023-02-17T14:25:06.115Z,0.70
2023-02-17T14:28:19.780Z,0.80
2023-02-17T14:34:27.880Z,0.87
2023-02-17T14:37:59.463Z,0.70
2023-02-17T14:41:03.873Z,0.53
2023-02-17T14:44:07.013Z,0.70
2023-02-17T14:47:09.902Z,0.85
2023-02-17T14:50:25.503Z,0.80
2023-02-17T14:53:30.988Z,0.80
2023-02-17T14:56:36.966Z,0.80
2023-02-17T14:59:39.640Z,1.00
2023-02-17T15:02:42.400Z,1.02
2023-02-17T15:05:46.038Z,1.10
2023-02-17T15:08:49.386Z,0.73
2023-02-17T15:11:53.390Z,0.90
2023-02-17T15:14:56.124Z,1.73
2023-02-17T15:17:58.672Z,1.17
2023-02-17T15:21:01.252Z,1.30
2023-02-17T15:24:05.067Z,1.10
2023-02-17T15:27:13.535Z,0.97
2023-02-17T15:30:17.966Z,1.03
2023-02-17T15:33:21.789Z,0.93
2023-02-17T15:36:25.093Z,1.00
2023-02-17T15:39:28.404Z,1.10
2023-02-17T15:42:32.404Z,1.23
2023-02-17T15:45:35.168Z,1.30
2023-02-17T15:48:39.267Z,1.60
2023-02-17T15:51:42.261Z,1.10
2023-02-17T15:54:45.470Z,1.20
2023-02-17T15:57:51.885Z,1.30
2023-02-17T16:01:07.360Z,1.40
2023-02-17T16:04:12.276Z,1.30
2023-02-17T16:07:15.019Z,1.30
2023-02-17T16:10:19.813Z,1.40
2023-02-17T16:13:25.136Z,1.57
2023-02-17T16:16:39.382Z,1.20
2023-02-17T16:19:42.050Z,1.10
2023-02-17T16:22:45.390Z,1.17
2023-02-17T16:25:48.957Z,1.50
2023-02-17T16:31:55.973Z,1.42
2023-02-17T16:34:58.569Z,1.13
2023-02-17T16:38:03.433Z,1.63
2023-02-17T16:41:07.680Z,1.47
2023-02-17T16:44:13.918Z,1.10
2023-02-17T16:47:21.001Z,1.30
2023-02-17T16:50:26.641Z,1.30
2023-02-17T16:53:29.263Z,1.10
2023-02-17T16:56:37.059Z,1.30
2023-02-17T16:59:41.045Z,1.37
2023-02-17T17:02:44.004Z,1.60
2023-02-17T17:05:47.175Z,1.77
2023-02-17T17:08:50.575Z,1.63
2023-02-17T17:11:53.209Z,1.88
2023-02-17T17:14:57.379Z,1.40
2023-02-17T17:18:02.320Z,1.43
2023-02-17T17:21:05.198Z,1.60
2023-02-17T17:24:08.501Z,1.40
2023-02-17T17:27:11.866Z,1.08
2023-02-17T17:30:19.721Z,1.60
2023-02-17T17:33:22.290Z,1.87
2023-02-17T17:36:26.964Z,2.03
2023-02-17T17:39:29.680Z,1.73
2023-02-17T17:42:32.224Z,1.40
2023-02-17T17:45:36.143Z,1.23
2023-02-17T17:48:38.729Z,1.50
2023-02-17T17:51:41.784Z,1.60
2023-02-17T17:54:44.917Z,1.23
2023-02-17T17:57:48.110Z,1.60
2023-02-17T18:00:52.970Z,1.30
2023-02-17T18:03:57.277Z,1.90
2023-02-17T18:06:59.979Z,1.60
2023-02-17T18:10:03.272Z,1.30
2023-02-17T18:13:06.542Z,1.73
2023-02-17T18:16:10.736Z,0.98
2023-02-17T18:19:14.237Z,1.67
2023-02-17T18:22:17.182Z,1.65
2023-02-17T18:25:19.884Z,1.85
2023-02-17T18:28:22.796Z,1.60
2023-02-17T18:31:29.389Z,1.50
2023-02-17T18:34:32.172Z,1.97
2023-02-17T18:37:34.964Z,1.70
2023-02-17T18:40:38.744Z,1.48
2023-02-17T18:43:42.128Z,1.50
2023-02-17T18:49:48.920Z,1.30
2023-02-17T18:52:51.657Z,1.50
2023-02-17T18:56:01.254Z,1.75
2023-02-17T18:59:04.192Z,1.67
2023-02-17T19:02:09.601Z,1.60
2023-02-17T19:05:13.600Z,1.40
2023-02-17T19:08:16.299Z,1.30
2023-02-17T19:11:20.742Z,1.50
2023-02-17T19:14:23.293Z,1.70
2023-02-17T19:17:27.476Z,1.60
2023-02-17T19:20:38.483Z,1.73
2023-02-17T19:23:42.577Z,1.67
2023-02-17T19:29:49.072Z,1.88
2023-02-17T19:32:53.343Z,2.00
2023-02-17T19:35:56.131Z,1.40
2023-02-17T19:38:59.001Z,1.27
2023-02-17T19:42:03.155Z,1.05
2023-02-17T19:45:06.310Z,1.20
2023-02-17T19:51:57.709Z,0.80
2023-02-17T19:55:00.621Z,0.90
2023-02-17T19:58:03.600Z,1.00
2023-02-17T20:01:07.450Z,0.95
2023-02-17T20:04:10.080Z,0.90
2023-02-17T20:07:14.596Z,1.13
2023-02-17T20:10:19.565Z,0.93
2023-02-17T20:13:22.171Z,1.17
2023-02-17T20:16:24.956Z,1.07
2023-02-17T20:19:27.879Z,1.17
2023-02-17T20:22:31.792Z,1.10
2023-02-17T20:25:34.451Z,1.20
2023-02-17T20:28:37.021Z,1.20
2023-02-17T20:31:41.970Z,1.33
2023-02-17T20:34:44.609Z,1.10
2023-02-17T20:37:48.703Z,1.20
2023-02-17T20:40:52.204Z,0.97
2023-02-17T20:43:54.857Z,0.90
2023-02-17T20:46:58.101Z,1.07
2023-02-17T20:50:00.839Z,0.80
2023-02-17T20:53:04.787Z,0.85
2023-02-17T20:56:13.752Z,1.30
2023-02-17T20:59:17.050Z,0.87
2023-02-17T21:02:19.686Z,0.52
2023-02-17T21:05:22.798Z,0.70
2023-02-17T21:08:27.778Z,0.75
2023-02-17T21:11:30.552Z,1.13
2023-02-17T21:14:33.858Z,0.55
2023-02-17T21:17:36.652Z,0.65
2023-02-17T21:20:39.108Z,1.27
2023-02-17T21:23:43.785Z,0.97
2023-02-17T21:26:46.787Z,0.50
2023-02-17T21:29:49.905Z,0.50
2023-02-17T21:32:52.790Z,0.60
2023-02-17T21:35:55.767Z,0.50
2023-02-17T21:38:59.716Z,0.57
2023-02-17T21:42:02.360Z,1.00
2023-02-17T21:45:04.657Z,1.02
2023-02-17T21:48:08.152Z,0.70
2023-02-17T21:51:12.824Z,1.03
2023-02-17T21:54:17.084Z,0.80
2023-02-17T21:57:19.636Z,0.57
2023-02-17T22:00:22.513Z,0.70
2023-02-17T22:03:25.569Z,0.75
2023-02-17T22:06:30.218Z,0.55
2023-02-17T22:09:34.302Z,0.50
2023-02-17T22:12:37.238Z,0.60
2023-02-17T22:15:40.275Z,0.40
2023-02-17T22:18:43.790Z,0.70
2023-02-17T22:24:50.925Z,0.40
2023-02-17T22:27:53.503Z,0.40
2023-02-17T22:30:56.254Z,0.60
2023-02-17T22:34:00.910Z,0.70
2023-02-17T22:37:03.866Z,0.50
2023-02-17T22:40:09.346Z,0.60
2023-02-17T22:43:11.972Z,0.77
2023-02-17T22:46:18.228Z,1.10
2023-02-17T22:49:20.984Z,0.47
2023-02-17T22:52:23.639Z,0.70
2023-02-17T22:55:27.688Z,1.23
2023-02-17T22:58:30.326Z,0.83
2023-02-17T23:01:34.703Z,0.60
2023-02-17T23:04:37.285Z,0.50
2023-02-17T23:07:39.811Z,0.50
2023-02-17T23:10:44.543Z,0.60
2023-02-17T23:13:47.093Z,0.60
2023-02-17T23:16:50.569Z,0.50
2023-02-17T23:19:53.177Z,0.98
2023-02-17T23:22:56.078Z,0.90
2023-02-17T23:25:59.943Z,0.70
2023-02-17T23:29:02.677Z,0.60
2023-02-17T23:32:05.560Z,0.50
2023-02-17T23:35:08.776Z,0.68
2023-02-17T23:38:12.042Z,0.85
2023-02-17T23:41:16.105Z,0.52
2023-02-17T23:44:19.002Z,0.73
2023-02-17T23:47:21.788Z,0.80
2023-02-17T23:50:24.562Z,0.60
2023-02-17T23:53:27.353Z,0.60
2023-02-17T23:56:32.756Z,0.88
2023-02-17T23:59:35.245Z,0.70
